Time;durP1;ratioP1;P1;durP2;ratioP2;P2;SDS_P1;SDS_P2;PMS_P1;PMS_P2;Temp;Humidity;BMP_temperature;BMP_pressure;BME280_temperature;BME280_humidity;BME280_pressure;Samples;Min_cycle;Max_cycle;Signal;HPM_P1;HPM_P2
2023/01/23 00:02:23;;;;;;;21.10;8.15;;;;;;;0.79;92.89;102144.56;124651;1102;102087;-78
2023/01/23 00:04:55;;;;;;;20.37;7.93;;;;;;;0.78;93.15;102147.89;124735;1101;104128;-78
2023/01/23 00:07:26;;;;;;;18.63;8.33;;;;;;;0.77;92.66;102148.67;124646;1102;104265;-79
2023/01/23 00:09:58;;;;;;;20.73;8.83;;;;;;;0.83;93.16;102142.44;124840;1105;102367;-78
2023/01/23 00:12:29;;;;;;;21.20;8.67;;;;;;;0.89;92.92;102149.91;124789;1102;104273;-79
2023/01/23 00:15:00;;;;;;;20.43;7.83;;;;;;;0.89;93.39;102149.91;124593;1102;104175;-78
2023/01/23 00:17:31;;;;;;;18.87;7.80;;;;;;;0.91;92.87;102150.97;124821;1102;104220;-78
2023/01/23 00:20:03;;;;;;;21.20;8.33;;;;;;;0.98;92.88;102153.42;124740;1102;104189;-78
2023/01/23 00:22:34;;;;;;;18.93;7.90;;;;;;;1.03;93.01;102157.38;124810;1101;104185;-78
2023/01/23 00:25:07;;;;;;;18.40;7.43;;;;;;;1.05;92.59;102148.09;124689;1105;104220;-78
2023/01/23 00:27:38;;;;;;;14.70;6.23;;;;;;;1.07;92.80;102149.14;124728;1102;101989;-78
2023/01/23 00:30:12;;;;;;;17.67;7.40;;;;;;;1.09;92.53;102146.72;124857;1105;102325;-78
2023/01/23 00:32:43;;;;;;;17.30;7.12;;;;;;;1.10;92.54;102148.55;124799;1105;102269;-78
2023/01/23 00:35:14;;;;;;;18.10;6.70;;;;;;;1.13;92.18;102150.54;124938;1105;102038;-78
2023/01/23 00:37:46;;;;;;;18.47;7.10;;;;;;;1.15;92.41;102152.50;124771;1105;101952;-78
2023/01/23 00:40:17;;;;;;;18.40;7.30;;;;;;;1.10;91.62;102153.72;124636;1103;104207;-79
2023/01/23 00:42:48;;;;;;;16.87;7.03;;;;;;;1.06;92.48;102159.33;124797;1102;102176;-78
2023/01/23 00:45:21;;;;;;;17.37;6.60;;;;;;;1.01;92.47;102158.91;124796;1105;102081;-78
2023/01/23 00:47:52;;;;;;;18.00;7.50;;;;;;;0.96;92.09;102161.77;124675;1105;104233;-77
2023/01/23 00:50:23;;;;;;;17.23;7.13;;;;;;;0.93;91.94;102162.36;124532;1105;101935;-79
2023/01/23 00:52:55;;;;;;;17.23;6.43;;;;;;;0.92;92.53;102164.80;124591;1105;101706;-79
2023/01/23 00:55:28;;;;;;;21.30;7.73;;;;;;;0.88;92.66;102161.91;124701;1105;104249;-78
2023/01/23 00:57:59;;;;;;;20.90;7.22;;;;;;;0.89;93.24;102162.84;124686;1105;104326;-78
2023/01/23 01:00:31;;;;;;;15.00;6.17;;;;;;;0.87;93.29;102157.52;124678;1105;101861;-78
2023/01/23 01:03:02;;;;;;;18.60;6.73;;;;;;;0.79;92.70;102160.06;124530;1105;102041;-79
2023/01/23 01:05:34;;;;;;;18.07;6.30;;;;;;;0.67;93.31;102165.83;124547;1102;102136;-78
2023/01/23 01:08:07;;;;;;;16.73;6.23;;;;;;;0.64;92.80;102159.41;124801;1102;102082;-78
2023/01/23 01:10:41;;;;;;;16.23;6.23;;;;;;;0.69;92.51;102158.23;124722;1102;101935;-77
2023/01/23 01:13:13;;;;;;;15.13;5.55;;;;;;;0.63;93.10;102167.94;124601;1102;102747;-78
2023/01/23 01:15:44;;;;;;;18.47;6.77;;;;;;;0.55;92.10;102161.98;124616;1105;102377;-78
2023/01/23 01:18:16;;;;;;;18.20;6.80;;;;;;;0.54;93.00;102173.06;124663;1105;101823;-79
2023/01/23 01:20:47;;;;;;;17.33;6.20;;;;;;;0.57;92.33;102167.31;124730;1104;104192;-78
2023/01/23 01:23:18;;;;;;;14.70;5.40;;;;;;;0.58;92.58;102164.88;124603;1105;104175;-78
2023/01/23 01:25:50;;;;;;;15.30;5.90;;;;;;;0.62;92.58;102163.52;124839;1105;104291;-78
2023/01/23 01:28:21;;;;;;;16.57;5.97;;;;;;;0.65;91.72;102162.15;124726;1103;102378;-78
2023/01/23 01:30:52;;;;;;;18.17;6.77;;;;;;;0.68;92.15;102159.88;124694;1105;104354;-79
2023/01/23 01:33:24;;;;;;;17.03;6.27;;;;;;;0.74;92.42;102158.70;124697;1105;101890;-78
2023/01/23 01:35:56;;;;;;;19.37;6.57;;;;;;;0.76;92.38;102160.66;124766;1105;104184;-78
2023/01/23 01:38:28;;;;;;;17.97;6.50;;;;;;;0.80;92.70;102161.91;124954;1102;104255;-78
2023/01/23 01:40:59;;;;;;;18.10;6.60;;;;;;;0.84;92.90;102164.02;124835;1102;104365;-78
2023/01/23 01:43:32;;;;;;;19.73;6.70;;;;;;;0.83;92.27;102157.05;124680;1102;104239;-78
2023/01/23 01:46:16;;;;;;;20.27;7.70;;;;;;;0.74;92.07;102162.19;124802;1105;102399;-78
2023/01/23 01:48:55;;;;;;;20.80;7.80;;;;;;;0.71;92.12;102159.28;124772;1105;104284;-79
2023/01/23 01:51:30;;;;;;;21.20;7.43;;;;;;;0.67;92.16;102170.98;124577;1105;104207;-78
2023/01/23 01:54:07;;;;;;;21.40;8.33;;;;;;;0.56;92.31;102161.20;124649;1105;104179;-79
2023/01/23 01:56:44;;;;;;;20.80;7.67;;;;;;;0.52;92.15;102172.00;124731;1105;104198;-78
2023/01/23 01:59:16;;;;;;;20.85;7.60;;;;;;;0.57;92.02;102175.05;124730;1105;102042;-78
2023/01/23 02:01:51;;;;;;;20.77;7.63;;;;;;;0.57;92.57;102165.63;124725;1105;104190;-78
2023/01/23 02:04:22;;;;;;;21.40;7.60;;;;;;;0.64;92.41;102168.09;124799;1102;104284;-78
2023/01/23 02:06:54;;;;;;;21.10;8.17;;;;;;;0.69;92.26;102165.98;124669;1102;104421;-78
2023/01/23 02:09:26;;;;;;;20.53;8.07;;;;;;;0.65;92.16;102166.41;124701;1102;102699;-78
2023/01/23 02:12:00;;;;;;;23.17;8.30;;;;;;;0.65;91.55;102164.73;124785;1105;104200;-78
2023/01/23 02:14:34;;;;;;;20.35;7.65;;;;;;;0.68;92.03;102167.62;124714;1103;104213;-78
2023/01/23 02:17:07;;;;;;;20.03;7.67;;;;;;;0.70;92.17;102170.37;124695;1104;102158;-78
2023/01/23 02:19:50;;;;;;;21.77;8.40;;;;;;;0.69;92.23;102172.05;124705;1105;102058;-78
2023/01/23 02:22:44;;;;;;;22.02;8.18;;;;;;;0.69;91.95;102172.05;124628;1105;104251;-78
2023/01/23 02:25:26;;;;;;;21.97;7.83;;;;;;;0.73;92.27;102173.27;124849;1105;104191;-78
2023/01/23 02:27:57;;;;;;;21.03;8.07;;;;;;;0.77;91.79;102167.66;124791;1105;104192;-78
2023/01/23 02:30:29;;;;;;;25.57;8.93;;;;;;;0.75;91.72;102170.84;124696;1105;104367;-78
2023/01/23 02:33:11;;;;;;;21.37;7.63;;;;;;;0.67;92.20;102181.33;124684;1105;104284;-78
2023/01/23 02:35:43;;;;;;;23.73;8.67;;;;;;;0.61;92.17;102178.11;124596;1105;102337;-78
2023/01/23 02:38:14;;;;;;;21.47;8.10;;;;;;;0.55;91.72;102185.23;124659;1105;101952;-77
2023/01/23 02:40:46;;;;;;;24.17;8.13;;;;;;;0.48;92.10;102187.93;124632;1105;104220;-77
2023/01/23 02:43:23;;;;;;;20.73;7.97;;;;;;;0.44;92.37;102180.64;124555;1105;104245;-78
2023/01/23 02:46:03;;;;;;;23.37;8.47;;;;;;;0.40;91.80;102176.80;124642;1102;104251;-78
2023/01/23 02:48:35;;;;;;;21.63;8.00;;;;;;;0.37;91.86;102175.58;124592;1105;102433;-78
2023/01/23 02:51:06;;;;;;;18.13;6.67;;;;;;;0.32;92.03;102176.02;124705;1105;101843;-78
2023/01/23 02:53:38;;;;;;;17.77;6.87;;;;;;;0.31;92.21;102179.37;124611;1105;104255;-78
2023/01/23 02:56:09;;;;;;;18.85;6.20;;;;;;;0.27;92.08;102179.80;124680;1105;102711;-78
2023/01/23 03:01:34;;;;;;;16.75;5.65;;;;;;;0.18;92.82;102191.75;124622;1105;104182;-78
2023/01/23 03:04:06;;;;;;;16.97;6.03;;;;;;;0.15;91.96;102189.75;124518;1105;104201;-79
2023/01/23 03:06:38;;;;;;;18.23;6.60;;;;;;;0.15;92.61;102173.36;124694;1105;102229;-78
2023/01/23 03:09:11;;;;;;;17.47;6.30;;;;;;;0.19;92.68;102180.68;124690;1105;104254;-78
2023/01/23 03:11:46;;;;;;;17.60;6.10;;;;;;;0.23;92.35;102180.22;124540;1105;102126;-78
2023/01/23 03:14:19;;;;;;;18.70;6.47;;;;;;;0.26;92.36;102180.54;124532;1105;102249;-79
2023/01/23 03:16:52;;;;;;;17.20;6.05;;;;;;;0.26;92.40;102184.80;124574;1102;104211;-78
2023/01/23 03:19:25;;;;;;;15.90;6.40;;;;;;;0.24;92.44;102184.64;124591;1103;104728;-78
2023/01/23 03:21:57;;;;;;;17.90;6.23;;;;;;;0.27;92.51;102182.37;124657;1102;104239;-78
2023/01/23 03:24:28;;;;;;;15.93;6.20;;;;;;;0.30;92.32;102179.21;124662;1102;101958;-78
2023/01/23 03:26:59;;;;;;;17.77;5.90;;;;;;;0.32;92.08;102181.17;124591;1105;104350;-78
2023/01/23 03:32:21;;;;;;;15.10;6.00;;;;;;;0.33;92.46;102188.18;124574;1105;102291;-78
2023/01/23 03:34:53;;;;;;;14.27;5.20;;;;;;;0.33;92.81;102192.45;124490;1106;101951;-78
2023/01/23 03:37:24;;;;;;;14.40;5.53;;;;;;;0.31;92.46;102189.70;124693;1105;101973;-79
2023/01/23 03:42:45;;;;;;;12.97;5.10;;;;;;;0.38;92.39;102180.01;124636;1105;104334;-78
2023/01/23 03:45:18;;;;;;;14.57;5.27;;;;;;;0.41;92.63;102183.81;124597;1105;104251;-78
2023/01/23 03:47:49;;;;;;;16.07;5.30;;;;;;;0.45;92.56;102180.80;124721;1105;104195;-78
2023/01/23 03:50:20;;;;;;;12.60;5.00;;;;;;;0.49;92.35;102180.34;124600;1105;102004;-79
2023/01/23 03:52:52;;;;;;;14.50;5.33;;;;;;;0.41;91.89;102178.64;124498;1105;104094;-78
2023/01/23 03:55:24;;;;;;;15.57;5.53;;;;;;;0.32;91.66;102180.27;124621;1105;102131;-78
2023/01/23 03:57:57;;;;;;;14.30;5.30;;;;;;;0.32;92.19;102181.17;124595;1105;101865;-79
2023/01/23 04:00:32;;;;;;;12.27;4.40;;;;;;;0.38;92.44;102185.17;124589;1105;104326;-78
2023/01/23 04:03:06;;;;;;;10.35;4.55;;;;;;;0.41;92.30;102186.39;124667;1102;104300;-79
2023/01/23 04:05:37;;;;;;;15.23;5.23;;;;;;;0.40;91.86;102191.40;124456;1102;104182;-79
2023/01/23 04:08:09;;;;;;;11.40;4.77;;;;;;;0.42;92.21;102184.71;124468;1105;104172;-77
2023/01/23 04:10:40;;;;;;;12.73;4.90;;;;;;;0.45;92.16;102195.36;124493;1104;104256;-78
2023/01/23 04:13:17;;;;;;;15.03;5.63;;;;;;;0.39;91.64;102194.73;124770;1105;101811;-79
2023/01/23 04:15:49;;;;;;;13.97;5.13;;;;;;;0.38;91.90;102190.34;124677;1105;102953;-79
2023/01/23 04:18:20;;;;;;;12.73;4.67;;;;;;;0.35;91.61;102196.98;124722;1105;104210;-78
2023/01/23 04:20:51;;;;;;;17.93;5.50;;;;;;;0.29;91.55;102205.78;124681;1106;101930;-78
2023/01/23 04:23:23;;;;;;;12.80;4.70;;;;;;;0.22;92.24;102201.66;124582;1105;104214;-78
2023/01/23 04:25:55;;;;;;;17.03;5.53;;;;;;;0.21;91.64;102199.81;124729;1105;104204;-78
2023/01/23 04:28:26;;;;;;;14.07;5.37;;;;;;;0.26;91.89;102208.04;124787;1105;104182;-79
2023/01/23 04:30:58;;;;;;;15.35;5.70;;;;;;;0.32;91.80;102203.52;124752;1105;102192;-79
2023/01/23 04:33:33;;;;;;;13.97;5.87;;;;;;;0.32;91.97;102201.83;124652;1105;104257;-78
2023/01/23 04:36:07;;;;;;;12.73;5.40;;;;;;;0.38;92.25;102198.98;124598;1105;104364;-78
2023/01/23 04:38:39;;;;;;;16.37;6.08;;;;;;;0.44;91.93;102203.89;124569;1105;101916;-78
2023/01/23 04:41:23;;;;;;;12.40;4.87;;;;;;;0.45;92.31;102213.44;124572;1105;102304;-78
2023/01/23 04:44:18;;;;;;;16.50;6.40;;;;;;;0.39;92.21;102212.80;124546;1105;104367;-78
2023/01/23 04:46:53;;;;;;;16.50;6.10;;;;;;;0.33;91.88;102224.33;124566;1105;104243;-78
2023/01/23 04:49:26;;;;;;;15.00;5.53;;;;;;;0.25;92.64;102219.11;124556;1103;104239;-79
2023/01/23 04:51:57;;;;;;;14.10;5.20;;;;;;;0.18;92.87;102230.47;124693;1102;102032;-79
2023/01/23 04:54:32;;;;;;;18.20;5.50;;;;;;;0.14;92.92;102242.16;124687;1102;104380;-78
2023/01/23 04:57:04;;;;;;;12.67;5.13;;;;;;;0.10;92.25;102234.83;124536;1105;104334;-79
2023/01/23 04:59:35;;;;;;;14.87;5.17;;;;;;;0.13;91.96;102239.41;124651;1105;101822;-78
2023/01/23 05:02:06;;;;;;;11.10;4.53;;;;;;;0.17;92.83;102234.73;124788;1105;101823;-80
2023/01/23 05:04:43;;;;;;;14.23;5.10;;;;;;;0.19;92.38;102245.22;124665;1105;102228;-80
2023/01/23 05:07:14;;;;;;;14.03;5.00;;;;;;;0.18;92.27;102248.55;124627;1102;104277;-80
2023/01/23 05:09:50;;;;;;;12.10;5.03;;;;;;;0.20;91.79;102247.03;124518;1105;104230;-80
2023/01/23 05:12:22;;;;;;;14.30;5.30;;;;;;;0.17;92.26;102245.06;124605;1105;104181;-79
2023/01/23 05:14:53;;;;;;;15.33;5.60;;;;;;;0.15;92.30;102250.80;124660;1105;102076;-80
2023/01/23 05:17:24;;;;;;;12.53;4.93;;;;;;;0.12;92.73;102248.80;124646;1105;104287;-80
2023/01/23 05:19:58;;;;;;;14.20;4.97;;;;;;;0.12;93.04;102253.06;124652;1105;102087;-79
2023/01/23 05:22:29;;;;;;;13.03;5.40;;;;;;;0.14;93.08;102251.55;124544;1104;104192;-79
2023/01/23 05:25:01;;;;;;;15.27;5.93;;;;;;;0.13;92.75;102257.48;124495;1105;101878;-80
2023/01/23 05:27:34;;;;;;;14.70;5.70;;;;;;;0.13;92.82;102265.23;124627;1105;102492;-80
2023/01/23 05:30:06;;;;;;;13.87;5.50;;;;;;;0.14;92.54;102267.03;124703;1103;104114;-80
2023/01/23 05:32:38;;;;;;;15.27;5.50;;;;;;;0.16;92.50;102268.13;124798;1105;102257;-79
2023/01/23 05:35:16;;;;;;;16.67;5.80;;;;;;;0.20;92.77;102272.84;124698;1105;101912;-80
2023/01/23 05:37:51;;;;;;;17.37;6.20;;;;;;;0.21;92.43;102273.78;124841;1105;102122;-79
2023/01/23 05:40:28;;;;;;;16.70;6.40;;;;;;;0.26;93.13;102272.59;124846;1105;104191;-81
2023/01/23 05:43:18;;;;;;;20.10;7.97;;;;;;;0.33;92.82;102280.24;125001;1105;104236;-80
2023/01/23 05:46:08;;;;;;;18.03;7.27;;;;;;;0.38;92.46;102286.80;124948;1104;102125;-78
2023/01/23 05:48:59;;;;;;;19.60;7.20;;;;;;;0.42;93.02;102293.19;124854;1103;104239;-81
2023/01/23 05:51:32;;;;;;;20.53;7.50;;;;;;;0.43;93.27;102298.52;124819;1105;102404;-80
2023/01/23 05:54:04;;;;;;;18.73;6.97;;;;;;;0.39;92.96;102295.45;124696;1105;104179;-80
2023/01/23 05:56:37;;;;;;;16.77;6.50;;;;;;;0.31;92.24;102294.64;124684;1105;104165;-78
2023/01/23 05:59:29;;;;;;;18.63;6.60;;;;;;;0.26;92.52;102298.41;124658;1103;102822;-77
2023/01/23 06:02:13;;;;;;;18.77;7.23;;;;;;;0.22;93.09;102302.34;124630;1105;102663;-78
2023/01/23 06:04:46;;;;;;;17.53;5.77;;;;;;;0.21;92.35;102303.09;124667;1102;102828;-79
2023/01/23 06:07:40;;;;;;;16.83;6.67;;;;;;;0.24;93.03;102311.16;124459;1102;101841;-78
2023/01/23 06:10:13;;;;;;;16.73;6.93;;;;;;;0.32;93.05;102304.22;124715;1105;102251;-77
2023/01/23 06:12:46;;;;;;;16.52;6.47;;;;;;;0.41;92.65;102319.79;124725;1105;102406;-81
2023/01/23 06:15:18;;;;;;;15.97;5.83;;;;;;;0.46;92.35;102316.02;124624;1105;104614;-79
2023/01/23 06:17:49;;;;;;;15.80;6.00;;;;;;;0.46;91.97;102313.43;124690;1105;104230;-80
2023/01/23 06:20:20;;;;;;;15.83;5.83;;;;;;;0.37;91.42;102323.69;124503;1105;111227;-78
2023/01/23 06:22:53;;;;;;;16.50;6.63;;;;;;;0.34;91.82;102320.78;124565;1105;104320;-78
2023/01/23 06:25:24;;;;;;;18.10;6.80;;;;;;;0.32;91.75;102324.89;124588;1105;103000;-78
2023/01/23 06:27:56;;;;;;;21.23;7.60;;;;;;;0.26;91.98;102319.97;124670;1106;103139;-78
2023/01/23 06:30:29;;;;;;;18.80;7.57;;;;;;;0.32;92.36;102325.79;124577;1105;103056;-77
2023/01/23 06:33:09;;;;;;;20.63;7.77;;;;;;;0.33;91.72;102321.56;124627;1105;104320;-79
2023/01/23 06:35:45;;;;;;;18.53;6.93;;;;;;;0.39;92.24;102326.44;124659;1105;102720;-78
2023/01/23 06:38:17;;;;;;;18.20;6.93;;;;;;;0.42;92.05;102322.53;124624;1105;103211;-78
2023/01/23 06:40:51;;;;;;;21.27;7.47;;;;;;;0.49;92.37;102330.16;124565;1105;108436;-76
2023/01/23 06:43:30;;;;;;;20.30;7.00;;;;;;;0.52;92.07;102338.23;124522;1104;104435;-80
2023/01/23 06:46:04;;;;;;;19.83;7.07;;;;;;;0.55;92.17;102335.06;124587;1105;103011;-77
2023/01/23 06:48:34;;;;;;;;;;;;;;;0.56;91.72;102342.04;124574;1105;104261;-76
2023/01/23 06:51:07;;;;;;;20.70;7.90;;;;;;;0.55;91.64;102332.48;124518;1105;118789;-76
2023/01/23 06:53:40;;;;;;;20.57;7.43;;;;;;;0.50;92.50;102339.75;124532;1106;104689;-77
2023/01/23 06:56:12;;;;;;;19.27;7.23;;;;;;;0.52;91.89;102339.91;124524;1105;102416;-77
2023/01/23 06:58:47;;;;;;;18.90;7.23;;;;;;;0.54;92.19;102343.55;124499;1105;103394;-78
2023/01/23 07:01:30;;;;;;;21.07;7.70;;;;;;;0.58;92.69;102348.30;124576;1102;104191;-77
2023/01/23 07:04:24;;;;;;;24.02;7.97;;;;;;;0.56;92.23;102343.72;124521;1105;103004;-79
2023/01/23 07:07:00;;;;;;;20.40;7.57;;;;;;;0.52;91.65;102345.98;124519;1106;102985;-78
2023/01/23 07:09:34;;;;;;;21.37;8.50;;;;;;;0.55;91.58;102347.98;124470;1105;104166;-77
2023/01/23 07:12:14;;;;;;;22.03;7.93;;;;;;;0.57;91.76;102354.22;124441;1105;102438;-78
2023/01/23 07:14:45;;;;;;;21.90;7.90;;;;;;;0.53;90.83;102346.88;124471;1105;103159;-78
2023/01/23 07:17:26;;;;;;;23.87;9.10;;;;;;;0.56;91.89;102344.63;124627;1106;104206;-79
2023/01/23 07:19:57;;;;;;;21.10;8.17;;;;;;;0.60;91.60;102340.72;124612;1105;102444;-79
2023/01/23 07:22:29;;;;;;;22.37;8.27;;;;;;;0.61;91.30;102338.30;124740;1106;104193;-79
2023/01/23 07:25:02;;;;;;;19.63;7.60;;;;;;;0.66;91.75;102347.43;124592;1106;103418;-78
2023/01/23 07:27:37;;;;;;;20.63;7.57;;;;;;;0.62;91.25;102349.53;124567;1102;104226;-77
2023/01/23 07:30:11;;;;;;;21.10;7.77;;;;;;;0.65;91.18;102344.69;124479;1103;102736;-78
2023/01/23 07:32:41;;;;;;;;;;;;;;;0.72;91.84;102344.59;124554;1105;102249;-78
2023/01/23 07:35:14;;;;;;;19.57;7.40;;;;;;;0.79;91.88;102347.04;124498;1103;104236;-78
2023/01/23 07:37:47;;;;;;;19.00;7.40;;;;;;;0.75;91.19;102343.97;124610;1105;102214;-77
2023/01/23 07:40:19;;;;;;;21.63;7.80;;;;;;;0.71;91.38;102347.91;124733;1105;103189;-78
2023/01/23 07:42:51;;;;;;;21.40;8.37;;;;;;;0.76;91.97;102356.15;124554;1105;102954;-78
2023/01/23 07:45:24;;;;;;;23.17;9.07;;;;;;;0.77;91.71;102355.41;124689;1102;104281;-77
2023/01/23 07:47:55;;;;;;;23.43;8.90;;;;;;;0.81;91.81;102354.95;124761;1102;103296;-76
2023/01/23 07:50:27;;;;;;;19.63;7.83;;;;;;;0.77;91.46;102348.56;124594;1102;104181;-77
2023/01/23 07:52:58;;;;;;;20.77;8.10;;;;;;;0.81;91.07;102349.78;124613;1105;102598;-77
2023/01/23 07:55:30;;;;;;;22.20;9.40;;;;;;;0.83;92.14;102348.30;124643;1105;103037;-79
2023/01/23 07:58:01;;;;;;;21.43;8.73;;;;;;;0.87;91.75;102350.42;124652;1105;104268;-78
2023/01/23 08:00:35;;;;;;;17.47;7.27;;;;;;;0.87;91.05;102351.36;124579;1105;102174;-76
2023/01/23 08:03:06;;;;;;;18.57;7.57;;;;;;;0.87;91.02;102360.77;124568;1105;104242;-77
2023/01/23 08:05:39;;;;;;;18.80;7.40;;;;;;;0.85;90.72;102363.19;124668;1105;105484;-77
2023/01/23 08:08:11;;;;;;;19.83;7.23;;;;;;;0.87;91.36;102360.77;124688;1105;104194;-78
2023/01/23 08:14:53;;;;;;;20.97;8.20;;;;;;;1.01;91.37;102362.20;124716;1105;102126;-78
2023/01/23 08:17:25;;;;;;;20.20;7.97;;;;;;;1.05;91.01;102365.27;125289;1105;101733;-78
2023/01/23 08:19:58;;;;;;;21.75;8.90;;;;;;;1.02;91.20;102367.53;124780;1103;104767;-77
2023/01/23 08:22:30;;;;;;;24.43;9.03;;;;;;;1.12;92.10;102376.24;124706;1105;104175;-78
2023/01/23 08:25:03;;;;;;;22.13;9.00;;;;;;;1.17;91.20;102372.45;125067;1105;102331;-77
2023/01/23 08:27:41;;;;;;;20.37;8.70;;;;;;;1.18;90.98;102377.78;124884;1102;104120;-80
2023/01/23 08:30:17;;;;;;;22.63;8.97;;;;;;;1.14;91.00;102377.30;124782;1102;104191;-78
2023/01/23 08:32:53;;;;;;;20.63;9.50;;;;;;;0.99;90.50;102390.48;124971;1102;102903;-78
2023/01/23 08:35:28;;;;;;;22.80;9.03;;;;;;;0.94;90.99;102383.02;124709;1104;117801;-79
2023/01/23 08:38:02;;;;;;;23.23;9.33;;;;;;;0.96;91.62;102379.81;124663;1105;103685;-79
2023/01/23 08:40:38;;;;;;;22.13;10.60;;;;;;;1.02;92.23;102375.28;124703;1105;102383;-79
2023/01/23 08:43:16;;;;;;;21.93;9.10;;;;;;;1.07;91.90;102374.08;124560;1105;103129;-78
2023/01/23 08:45:51;;;;;;;23.93;8.87;;;;;;;1.01;91.47;102376.06;124451;1104;104223;-78
2023/01/23 08:48:28;;;;;;;19.77;7.73;;;;;;;0.93;91.68;102373.42;124648;1102;104316;-76
2023/01/23 08:51:07;;;;;;;19.47;7.57;;;;;;;0.88;91.06;102376.43;124722;1102;104284;-77
2023/01/23 08:53:43;;;;;;;20.27;7.90;;;;;;;0.86;91.44;102372.78;124809;1103;103430;-78
2023/01/23 08:56:17;;;;;;;20.30;8.23;;;;;;;0.89;91.36;102377.37;124906;1105;102713;-77
2023/01/23 08:58:51;;;;;;;23.42;8.43;;;;;;;0.90;91.34;102371.42;124546;1104;103538;-77
2023/01/23 09:01:33;;;;;;;21.53;8.80;;;;;;;0.91;91.42;102369.77;124612;1105;104367;-81
2023/01/23 09:04:08;;;;;;;21.03;9.30;;;;;;;0.95;91.43;102374.48;124644;1103;104217;-77
2023/01/23 09:06:45;;;;;;;25.33;10.33;;;;;;;1.04;91.91;102365.11;124603;1102;104111;-79
2023/01/23 09:09:17;;;;;;;24.03;10.63;;;;;;;1.16;92.08;102376.72;124678;1102;102313;-78
2023/01/23 09:11:52;;;;;;;23.80;10.10;;;;;;;1.22;92.15;102367.01;124584;1103;102091;-76
2023/01/23 09:14:27;;;;;;;24.30;9.60;;;;;;;1.22;91.20;102374.77;124424;1102;104422;-77
2023/01/23 09:16:59;;;;;;;22.70;9.00;;;;;;;1.23;91.16;102374.02;124483;1106;102498;-79
2023/01/23 09:19:34;;;;;;;20.53;8.73;;;;;;;1.21;91.16;102377.20;125819;1105;101908;-77
2023/01/23 09:22:37;;;;;;;23.57;9.40;;;;;;;1.22;90.91;102372.18;125842;1103;102105;-76
2023/01/23 09:25:10;;;;;;;27.17;10.73;;;;;;;1.20;91.03;102378.87;126285;1103;102688;-78
2023/01/23 09:28:11;;;;;;;24.60;9.67;;;;;;;1.21;91.47;102374.61;124429;1105;104217;-77
2023/01/23 09:30:45;;;;;;;21.27;8.73;;;;;;;1.17;91.57;102375.97;124383;1105;104168;-76
2023/01/23 09:33:15;;;;;;;;;;;;;;;1.16;91.29;102370.64;124560;1105;104264;-78
2023/01/23 09:35:53;;;;;;;22.17;9.07;;;;;;;1.27;91.58;102364.00;124578;1105;103585;-77
2023/01/23 09:38:26;;;;;;;22.87;9.27;;;;;;;1.36;91.74;102368.43;124665;1102;102316;-76
2023/01/23 09:41:00;;;;;;;21.80;9.17;;;;;;;1.38;91.85;102371.17;124438;1103;103094;-78
2023/01/23 09:43:41;;;;;;;22.90;8.20;;;;;;;1.38;92.04;102364.31;124577;1106;103118;-77
2023/01/23 09:46:22;;;;;;;16.90;6.30;;;;;;;1.35;91.10;102368.27;124472;1105;103433;-78
2023/01/23 09:48:59;;;;;;;16.53;7.20;;;;;;;1.30;90.97;102367.80;124459;1105;104214;-76
2023/01/23 09:51:43;;;;;;;19.33;7.50;;;;;;;1.27;91.27;102359.72;124517;1105;104162;-77
2023/01/23 09:54:29;;;;;;;16.40;6.97;;;;;;;1.36;91.66;102358.08;124562;1105;103670;-77
2023/01/23 09:57:13;;;;;;;17.40;7.27;;;;;;;1.49;92.13;102355.06;124503;1103;107977;-78
2023/01/23 09:59:52;;;;;;;18.53;7.23;;;;;;;1.55;91.98;102360.86;124637;1102;103039;-77
2023/01/23 10:02:33;;;;;;;20.43;7.03;;;;;;;1.60;91.33;102351.88;124827;1102;104184;-79
2023/01/23 10:05:18;;;;;;;14.47;6.07;;;;;;;1.70;91.36;102348.58;125347;1102;103434;-77
2023/01/23 10:08:05;;;;;;;15.70;6.03;;;;;;;1.69;91.32;102345.83;124862;1105;102568;-77
2023/01/23 10:10:53;;;;;;;19.57;7.97;;;;;;;1.66;91.41;102336.08;124650;1105;103635;-77
2023/01/23 10:13:50;;;;;;;19.87;7.40;;;;;;;1.78;91.44;102341.59;124686;1105;102310;-78
2023/01/23 10:16:41;;;;;;;14.23;6.20;;;;;;;1.86;91.26;102332.91;124809;1105;102520;-79
2023/01/23 10:19:26;;;;;;;15.20;6.00;;;;;;;1.87;91.27;102334.74;124727;1105;102952;-79
2023/01/23 10:22:07;;;;;;;15.60;5.90;;;;;;;1.88;90.96;102326.19;124782;1105;103167;-74
2023/01/23 10:24:50;;;;;;;15.20;6.63;;;;;;;1.88;90.91;102333.06;124633;1105;103371;-78
2023/01/23 10:27:24;;;;;;;14.37;6.10;;;;;;;1.90;91.19;102326.34;124568;1102;104245;-78
2023/01/23 10:30:01;;;;;;;14.93;5.70;;;;;;;1.93;90.97;102321.47;124581;1105;102922;-77
2023/01/23 10:32:44;;;;;;;16.13;5.93;;;;;;;1.97;91.08;102321.93;124709;1102;102196;-77
2023/01/23 10:35:34;;;;;;;14.70;6.23;;;;;;;2.07;90.71;102305.66;124638;1102;104255;-77
2023/01/23 10:38:16;;;;;;;14.20;5.90;;;;;;;2.10;90.03;102313.73;124769;1105;110022;-78
2023/01/23 10:43:42;;;;;;;10.97;5.20;;;;;;;2.09;89.55;102306.70;124769;1105;102827;-76
2023/01/23 10:46:18;;;;;;;13.97;5.67;;;;;;;2.14;90.62;102302.89;124747;1105;104175;-77
2023/01/23 10:48:52;;;;;;;16.00;6.13;;;;;;;2.15;89.68;102301.20;124995;1104;102231;-76
2023/01/23 10:51:47;;;;;;;15.43;5.42;;;;;;;2.17;89.38;102297.11;124784;1105;103580;-78
2023/01/23 10:54:20;;;;;;;12.10;5.22;;;;;;;2.18;88.57;102291.14;125103;1103;102452;-77
2023/01/23 10:56:58;;;;;;;13.55;5.67;;;;;;;2.24;89.62;102291.73;124852;1103;104156;-78
2023/01/23 10:59:35;;;;;;;11.13;5.07;;;;;;;2.31;89.52;102288.09;124883;1103;102482;-76
2023/01/23 11:02:21;;;;;;;13.80;5.20;;;;;;;2.29;89.22;102289.59;124753;1102;104182;-76
2023/01/23 11:04:57;;;;;;;12.40;5.10;;;;;;;2.18;88.32;102278.19;124696;1106;103424;-77
2023/01/23 11:07:42;;;;;;;10.77;4.70;;;;;;;2.09;88.31;102277.31;125112;1106;103527;-82
2023/01/23 11:10:21;;;;;;;12.17;4.93;;;;;;;1.99;87.88;102270.30;125403;1105;102037;-78
2023/01/23 11:13:02;;;;;;;11.77;5.33;;;;;;;1.93;88.48;102269.69;124899;1104;104396;-77
2023/01/23 11:15:41;;;;;;;13.00;5.65;;;;;;;1.92;88.31;102266.20;124888;1106;102720;-76
2023/01/23 11:18:33;;;;;;;11.33;4.80;;;;;;;1.90;88.35;102262.56;124765;1103;102662;-77
2023/01/23 11:21:09;;;;;;;9.57;4.13;;;;;;;1.93;88.23;102262.86;125034;1105;102593;-77
2023/01/23 11:23:53;;;;;;;10.77;3.97;;;;;;;1.94;87.10;102268.94;125132;1104;102574;-77
2023/01/23 11:26:39;;;;;;;8.90;4.07;;;;;;;1.93;87.42;102262.86;125437;1105;102448;-77
2023/01/23 11:29:25;;;;;;;9.53;4.22;;;;;;;1.88;88.18;102258.88;116031;1105;10001703;-80
2023/01/23 11:32:01;;;;;;;10.13;3.97;;;;;;;1.93;88.21;102259.34;124793;1102;102337;-78
2023/01/23 11:35:08;;;;;;;11.50;4.50;;;;;;;1.97;87.71;102269.24;124935;1106;102507;-77
2023/01/23 11:38:05;;;;;;;11.27;4.90;;;;;;;2.01;88.53;102266.20;125029;1105;103285;-76
2023/01/23 11:40:47;;;;;;;9.57;4.40;;;;;;;2.05;86.96;102259.64;125224;1105;104217;-76
2023/01/23 11:43:22;;;;;;;12.53;4.53;;;;;;;2.03;86.60;102267.26;116514;1105;10001833;-77
2023/01/23 11:46:10;;;;;;;12.10;5.13;;;;;;;1.99;85.32;102267.70;125148;1105;102089;-76
2023/01/23 11:48:58;;;;;;;13.67;5.17;;;;;;;1.95;85.27;102274.27;124947;1103;103010;-75
2023/01/23 11:51:37;;;;;;;9.53;4.20;;;;;;;1.94;85.92;102264.66;125088;1105;102487;-76
2023/01/23 11:54:21;;;;;;;9.90;4.17;;;;;;;1.92;82.87;102265.30;124833;1102;103176;-76
2023/01/23 11:57:07;;;;;;;11.93;4.43;;;;;;;1.89;85.11;102265.00;124940;1102;102294;-80
2023/01/23 12:00:22;;;;;;;9.83;4.20;;;;;;;1.86;85.21;102262.10;125161;1105;102991;-77
2023/01/23 12:03:39;;;;;;;11.60;4.80;;;;;;;1.90;85.55;102262.56;124810;1108;103225;-76
2023/01/23 12:06:28;;;;;;;10.00;4.30;;;;;;;1.94;83.41;102259.48;124550;1106;102666;-75